Otis, Indiana
Current Conditions -  °F | °C
As of 4:06 AM on Friday 19 Dec 2014 (Local Time) from KVPZ Reporting Station
Overcast Overcast  
Wind Chill: 18°   Ceiling: 1400
Heat Index: 27°   Visibility: 10mi
Dew Point: 22°   Wind: 9mph
Humidity: 81%   Direction: 260°W
Pressure: 30.25"   Gusts: NA
Location:  41.5386°N, 86.9094°W
Report Text: KVPZ 191006Z AUTO 26008KT 10SM OVC014 M03/M06 A3025 RMK AO2 T10281056 TSNO
Loading
Personal Weather Stations






























Interactive Weather Map New forecast layout! Learn more

10-Day Weather Forecast

Advertisements
Track Severe Weather on mobile